Time;durP1;ratioP1;P1;durP2;ratioP2;P2;SDS_P1;SDS_P2;PMS_P1;PMS_P2;Temp;Humidity;BMP_temperature;BMP_pressure;BME280_temperature;BME280_humidity;BME280_pressure;Samples;Min_cycle;Max_cycle;Signal;HPM_P1;HPM_P2
2023/01/26 00:01:30;;;;;;;81.67;27.87;;;;;;;;;;5081697;28;20482;-76
2023/01/26 00:03:56;;;;;;;94.28;34.55;;;;;;;;;;5066317;28;20461;-76
2023/01/26 00:06:23;;;;;;;97.00;39.45;;;;;;;;;;5074553;28;20366;-77
2023/01/26 00:08:51;;;;;;;104.50;38.25;;;;;;;;;;5074838;28;20641;-76
2023/01/26 00:11:19;;;;;;;91.18;32.50;;;;;;;;;;5071458;28;20240;-75
2023/01/26 00:13:45;;;;;;;109.05;37.05;;;;;;;;;;5074345;28;20718;-76
2023/01/26 00:16:12;;;;;;;97.57;37.20;;;;;;;;;;5070820;28;20186;-76
2023/01/26 00:18:39;;;;;;;93.40;36.55;;;;;;;;;;5078967;28;20187;-75
2023/01/26 00:21:05;;;;;;;102.20;36.05;;;;;;;;;;5072066;28;20722;-76
2023/01/26 00:23:32;;;;;;;88.47;33.25;;;;;;;;;;5065355;28;20191;-76
2023/01/26 00:25:58;;;;;;;94.83;35.47;;;;;;;;;;5063754;28;20239;-75
2023/01/26 00:28:24;;;;;;;105.53;40.50;;;;;;;;;;5077034;28;20424;-76
2023/01/26 00:30:50;;;;;;;100.20;32.45;;;;;;;;;;5073970;28;21214;-75
2023/01/26 00:33:16;;;;;;;93.20;32.63;;;;;;;;;;5066527;28;20210;-75
2023/01/26 00:35:45;;;;;;;96.93;34.00;;;;;;;;;;5080121;28;20439;-76
2023/01/26 00:38:11;;;;;;;98.28;37.60;;;;;;;;;;5065001;28;20182;-75
2023/01/26 00:40:38;;;;;;;98.53;35.55;;;;;;;;;;5073422;28;20795;-75
2023/01/26 00:43:04;;;;;;;87.60;35.25;;;;;;;;;;5085283;28;20170;-75
2023/01/26 00:45:30;;;;;;;77.47;31.48;;;;;;;;;;5061195;28;20186;-75
2023/01/26 00:47:56;;;;;;;92.33;32.50;;;;;;;;;;5069861;28;20173;-75
2023/01/26 00:50:22;;;;;;;99.73;36.50;;;;;;;;;;5074145;28;20403;-75
2023/01/26 00:52:48;;;;;;;89.53;33.20;;;;;;;;;;5099129;28;20735;-76
2023/01/26 00:55:14;;;;;;;106.40;33.37;;;;;;;;;;5055751;28;20189;-76
2023/01/26 00:57:40;;;;;;;97.27;35.97;;;;;;;;;;5075451;28;20443;-76
2023/01/26 01:00:07;;;;;;;108.43;36.03;;;;;;;;;;5067336;28;20419;-75
2023/01/26 01:02:33;;;;;;;99.53;34.90;;;;;;;;;;5077607;28;20801;-75
2023/01/26 01:04:59;;;;;;;60.97;25.23;;;;;;;;;;5072937;28;20206;-76
2023/01/26 01:07:25;;;;;;;78.70;31.90;;;;;;;;;;5072359;28;20609;-75
2023/01/26 01:09:51;;;;;;;84.53;34.22;;;;;;;;;;5072058;28;20490;-76
2023/01/26 01:12:17;;;;;;;108.73;36.30;;;;;;;;;;5084124;28;20302;-75
2023/01/26 01:14:43;;;;;;;100.50;35.00;;;;;;;;;;5080179;28;20434;-76
2023/01/26 01:17:09;;;;;;;90.13;32.67;;;;;;;;;;5048282;28;20444;-75
2023/01/26 01:19:36;;;;;;;87.10;32.83;;;;;;;;;;5068628;28;20633;-76
2023/01/26 01:22:02;;;;;;;85.28;30.95;;;;;;;;;;5065113;28;20443;-75
2023/01/26 01:24:28;;;;;;;86.40;32.78;;;;;;;;;;5065614;28;20199;-75
2023/01/26 01:26:55;;;;;;;94.60;30.55;;;;;;;;;;5074315;28;20226;-76
2023/01/26 01:29:20;;;;;;;86.07;32.40;;;;;;;;;;5069693;28;20191;-76
2023/01/26 01:31:46;;;;;;;93.90;33.20;;;;;;;;;;5069733;28;20221;-75
2023/01/26 01:34:12;;;;;;;96.30;32.77;;;;;;;;;;5078971;28;20432;-76
2023/01/26 01:36:38;;;;;;;93.50;35.03;;;;;;;;;;5066754;28;20488;-75
2023/01/26 01:39:04;;;;;;;101.50;34.80;;;;;;;;;;5077077;28;20436;-76
2023/01/26 01:41:30;;;;;;;111.40;35.92;;;;;;;;;;5051187;28;20471;-75
2023/01/26 01:44:16;;;;;;;89.90;33.70;;;;;;;;;;5098282;28;20177;-76
2023/01/26 01:46:46;;;;;;;95.78;35.65;;;;;;;;;;5081225;28;21163;-75
2023/01/26 01:49:20;;;;;;;96.25;27.98;;;;;;;;;;5067848;28;20182;-75
2023/01/26 01:51:50;;;;;;;78.43;33.15;;;;;;;;;;5080440;28;20201;-75
2023/01/26 01:54:18;;;;;;;87.85;34.90;;;;;;;;;;5077926;28;20172;-75
2023/01/26 01:56:46;;;;;;;92.18;35.75;;;;;;;;;;5076439;28;20284;-75
2023/01/26 01:59:13;;;;;;;105.18;36.78;;;;;;;;;;5067683;28;20191;-75
2023/01/26 02:01:39;;;;;;;105.28;34.17;;;;;;;;;;5079799;28;20664;-74
2023/01/26 02:04:06;;;;;;;103.55;35.70;;;;;;;;;;5072414;28;20189;-74
2023/01/26 02:06:50;;;;;;;99.18;34.75;;;;;;;;;;5078249;28;20198;-76
2023/01/26 02:12:04;;;;;;;88.70;32.17;;;;;;;;;;5071854;28;20751;-75
2023/01/26 02:14:31;;;;;;;113.85;38.17;;;;;;;;;;5057191;28;20183;-75
2023/01/26 02:16:57;;;;;;;98.93;31.95;;;;;;;;;;5074549;28;20225;-75
2023/01/26 02:19:32;;;;;;;102.73;30.70;;;;;;;;;;5072650;28;20218;-75
2023/01/26 02:22:01;;;;;;;100.72;35.67;;;;;;;;;;5065976;28;20415;-76
2023/01/26 02:24:32;;;;;;;89.97;33.25;;;;;;;;;;5067318;28;20190;-75
2023/01/26 02:26:58;;;;;;;107.60;34.20;;;;;;;;;;5043508;28;20230;-76
2023/01/26 02:29:24;;;;;;;96.75;31.20;;;;;;;;;;5051678;28;20237;-75
2023/01/26 02:34:57;;;;;;;101.80;35.25;;;;;;;;;;5057112;28;20222;-76
2023/01/26 02:37:23;;;;;;;90.82;35.83;;;;;;;;;;5071957;28;20304;-75
2023/01/26 02:39:54;;;;;;;77.10;28.85;;;;;;;;;;5050200;28;20187;-75
2023/01/26 02:42:40;;;;;;;91.22;32.65;;;;;;;;;;5035728;28;20195;-74
2023/01/26 02:45:07;;;;;;;103.20;35.33;;;;;;;;;;5059854;28;20548;-75
2023/01/26 02:47:33;;;;;;;79.65;26.45;;;;;;;;;;5071240;28;20198;-75
2023/01/26 02:49:59;;;;;;;97.80;32.20;;;;;;;;;;5047034;28;20186;-75
2023/01/26 02:52:26;;;;;;;93.82;31.48;;;;;;;;;;5057731;28;20476;-75
2023/01/26 02:57:37;;;;;;;101.65;34.67;;;;;;;;;;5047959;28;20225;-75
2023/01/26 03:00:05;;;;;;;95.53;32.63;;;;;;;;;;5055515;28;20195;-75
2023/01/26 03:02:31;;;;;;;101.25;31.80;;;;;;;;;;5080228;28;20882;-75
2023/01/26 03:04:57;;;;;;;99.65;32.60;;;;;;;;;;5059940;28;20226;-76
2023/01/26 03:07:24;;;;;;;99.37;29.90;;;;;;;;;;5046891;28;20226;-75
2023/01/26 03:09:50;;;;;;;76.60;28.73;;;;;;;;;;5041418;28;20423;-76
2023/01/26 03:12:16;;;;;;;101.97;34.33;;;;;;;;;;5044258;28;20214;-75
2023/01/26 03:14:42;;;;;;;120.07;38.93;;;;;;;;;;5046271;28;20432;-75
2023/01/26 03:17:08;;;;;;;86.37;32.00;;;;;;;;;;5052158;28;20408;-75
2023/01/26 03:27:48;;;;;;;83.07;26.70;;;;;;;;;;5046394;28;20569;-74
2023/01/26 03:30:16;;;;;;;78.28;26.65;;;;;;;;;;5059629;28;20198;-75
2023/01/26 03:32:42;;;;;;;92.68;30.60;;;;;;;;;;5049666;28;20932;-75
2023/01/26 03:35:14;;;;;;;99.45;32.33;;;;;;;;;;5043838;28;20183;-75
2023/01/26 03:37:42;;;;;;;83.60;31.98;;;;;;;;;;5055221;28;20191;-76
2023/01/26 03:56:36;;;;;;;84.68;28.83;;;;;;;;;;5045101;28;20217;-76
2023/01/26 03:59:13;;;;;;;91.57;32.30;;;;;;;;;;5052064;28;20878;-76
2023/01/26 04:01:41;;;;;;;83.35;31.45;;;;;;;;;;5057528;28;20411;-75
2023/01/26 04:09:40;;;;;;;73.07;27.05;;;;;;;;;;5057463;28;20298;-77
2023/01/26 04:12:09;;;;;;;86.47;29.77;;;;;;;;;;5050839;28;20669;-76
2023/01/26 04:22:50;;;;;;;92.95;34.38;;;;;;;;;;5045470;28;20256;-75
2023/01/26 04:25:18;;;;;;;88.85;31.02;;;;;;;;;;5056015;28;20195;-75
2023/01/26 04:27:44;;;;;;;96.65;31.98;;;;;;;;;;5075822;28;20539;-75
2023/01/26 04:30:11;;;;;;;97.18;31.48;;;;;;;;;;5055679;28;20191;-75
2023/01/26 04:32:37;;;;;;;87.28;30.67;;;;;;;;;;5056360;28;20884;-76
2023/01/26 04:37:40;;;;;;;63.17;26.10;;;;;;;;;;5066295;28;20209;-75
2023/01/26 04:40:06;;;;;;;78.30;31.33;;;;;;;;;;5076180;28;20223;-75
2023/01/26 04:42:32;;;;;;;92.28;34.42;;;;;;;;;;5092061;28;20209;-81
2023/01/26 04:44:58;;;;;;;81.47;32.07;;;;;;;;;;5075819;28;20257;-82
2023/01/26 04:47:24;;;;;;;108.60;35.30;;;;;;;;;;5091558;28;20832;-84
2023/01/26 04:49:50;;;;;;;103.13;28.67;;;;;;;;;;5090198;28;20256;-83
2023/01/26 04:52:16;;;;;;;71.50;25.90;;;;;;;;;;5094840;28;20282;-81
2023/01/26 04:54:42;;;;;;;91.77;29.90;;;;;;;;;;5092276;28;20191;-82
2023/01/26 04:57:08;;;;;;;84.83;31.90;;;;;;;;;;5108730;28;20478;-82
2023/01/26 04:59:34;;;;;;;96.33;30.80;;;;;;;;;;5095782;28;20434;-83
2023/01/26 05:02:00;;;;;;;71.50;26.48;;;;;;;;;;5098528;28;20411;-84
2023/01/26 05:04:26;;;;;;;74.25;26.70;;;;;;;;;;5116813;28;20190;-82
2023/01/26 05:06:52;;;;;;;86.60;30.88;;;;;;;;;;5095760;28;20194;-83
2023/01/26 05:09:18;;;;;;;90.37;29.00;;;;;;;;;;5072888;28;20238;-80
2023/01/26 05:11:44;;;;;;;74.37;27.47;;;;;;;;;;5066963;28;20520;-82
2023/01/26 05:14:10;;;;;;;100.50;28.77;;;;;;;;;;5075774;28;20396;-80
2023/01/26 05:16:36;;;;;;;78.97;28.30;;;;;;;;;;5087164;28;20385;-83
2023/01/26 05:19:02;;;;;;;78.90;27.60;;;;;;;;;;5082961;28;20225;-81
2023/01/26 05:21:28;;;;;;;74.40;28.00;;;;;;;;;;5083555;28;21006;-82
2023/01/26 05:23:54;;;;;;;67.63;24.15;;;;;;;;;;5086634;28;20704;-81
2023/01/26 05:26:21;;;;;;;66.95;26.63;;;;;;;;;;5083475;28;20679;-81
2023/01/26 05:28:47;;;;;;;84.90;30.75;;;;;;;;;;5081084;28;20210;-81
2023/01/26 05:31:13;;;;;;;86.77;27.80;;;;;;;;;;5074420;28;20585;-82
2023/01/26 05:33:39;;;;;;;89.33;29.57;;;;;;;;;;5070569;28;20782;-81
2023/01/26 05:36:05;;;;;;;78.93;26.90;;;;;;;;;;5052601;28;20447;-82
2023/01/26 05:38:31;;;;;;;61.13;23.42;;;;;;;;;;5044536;28;20470;-82
2023/01/26 05:40:58;;;;;;;90.90;29.40;;;;;;;;;;5050474;28;20701;-81
2023/01/26 05:43:24;;;;;;;73.07;26.27;;;;;;;;;;5050249;28;20527;-82
2023/01/26 05:45:50;;;;;;;83.43;30.80;;;;;;;;;;5060287;28;20191;-81
2023/01/26 05:48:16;;;;;;;74.25;26.98;;;;;;;;;;5058976;28;21019;-80
2023/01/26 05:50:42;;;;;;;72.60;26.92;;;;;;;;;;5048993;28;20634;-80
2023/01/26 05:53:08;;;;;;;66.90;25.77;;;;;;;;;;5049622;28;20201;-82
2023/01/26 05:55:34;;;;;;;69.23;25.87;;;;;;;;;;5048462;28;20499;-81
2023/01/26 05:58:00;;;;;;;68.90;25.65;;;;;;;;;;5060285;28;20528;-80
2023/01/26 06:00:26;;;;;;;66.23;24.83;;;;;;;;;;5042011;28;20259;-80
2023/01/26 06:02:52;;;;;;;68.38;25.70;;;;;;;;;;5062766;28;20411;-80
2023/01/26 06:05:18;;;;;;;74.68;25.60;;;;;;;;;;5063263;28;20167;-81
2023/01/26 06:07:44;;;;;;;82.00;25.98;;;;;;;;;;5051310;28;20186;-81
2023/01/26 06:10:10;;;;;;;66.87;25.27;;;;;;;;;;5054965;28;20225;-80
2023/01/26 06:12:37;;;;;;;62.05;23.55;;;;;;;;;;5064015;28;20931;-79
2023/01/26 06:15:04;;;;;;;49.28;18.08;;;;;;;;;;5036358;28;20661;-80
2023/01/26 06:17:30;;;;;;;61.45;22.50;;;;;;;;;;5046057;28;20528;-78
2023/01/26 06:19:56;;;;;;;60.13;23.33;;;;;;;;;;5058391;28;20180;-80
2023/01/26 06:22:22;;;;;;;57.10;24.85;;;;;;;;;;5061127;28;20767;-80
2023/01/26 06:24:48;;;;;;;66.43;22.23;;;;;;;;;;5044221;28;20199;-82
2023/01/26 06:27:15;;;;;;;57.10;24.10;;;;;;;;;;5056340;28;20202;-79
2023/01/26 06:29:41;;;;;;;55.72;21.67;;;;;;;;;;5054125;28;20215;-80
2023/01/26 06:32:09;;;;;;;67.68;25.13;;;;;;;;;;5065980;28;20233;-79
2023/01/26 06:34:35;;;;;;;48.58;18.85;;;;;;;;;;5068058;28;20202;-80
2023/01/26 06:37:01;;;;;;;61.60;24.33;;;;;;;;;;5060956;28;20268;-81
2023/01/26 06:39:27;;;;;;;56.43;22.73;;;;;;;;;;5026688;28;20495;-81
2023/01/26 06:41:53;;;;;;;49.67;20.08;;;;;;;;;;5053979;28;20437;-81
2023/01/26 06:44:19;;;;;;;56.50;21.50;;;;;;;;;;5041294;28;20243;-79
2023/01/26 06:46:45;;;;;;;54.50;21.13;;;;;;;;;;5047816;28;20437;-79
2023/01/26 06:49:12;;;;;;;48.95;18.73;;;;;;;;;;5037191;28;20176;-81
2023/01/26 06:51:38;;;;;;;57.20;22.15;;;;;;;;;;5053656;28;20203;-80
2023/01/26 06:54:04;;;;;;;54.70;22.07;;;;;;;;;;5048354;28;20692;-81
2023/01/26 06:56:30;;;;;;;47.95;20.98;;;;;;;;;;5060476;28;20408;-81
2023/01/26 06:58:56;;;;;;;58.72;22.98;;;;;;;;;;5037239;28;20271;-81
2023/01/26 07:01:24;;;;;;;51.30;21.20;;;;;;;;;;5035073;28;20211;-81
2023/01/26 07:03:51;;;;;;;53.92;19.55;;;;;;;;;;5055844;28;20451;-81
2023/01/26 07:06:17;;;;;;;52.72;21.13;;;;;;;;;;5050377;28;20257;-80
2023/01/26 07:08:43;;;;;;;56.40;21.63;;;;;;;;;;5051689;28;20248;-80
2023/01/26 07:11:09;;;;;;;56.70;20.38;;;;;;;;;;5029951;28;20553;-82
2023/01/26 07:13:35;;;;;;;50.63;21.00;;;;;;;;;;5046441;28;20179;-82
2023/01/26 07:16:07;;;;;;;45.00;20.50;;;;;;;;;;5046071;28;20577;-82
2023/01/26 07:18:34;;;;;;;62.72;21.85;;;;;;;;;;5047072;28;20932;-81
2023/01/26 07:21:01;;;;;;;58.42;23.80;;;;;;;;;;5043450;28;20366;-81
2023/01/26 07:23:27;;;;;;;55.97;22.02;;;;;;;;;;5053615;28;20641;-81
2023/01/26 07:25:53;;;;;;;51.22;20.40;;;;;;;;;;5036057;28;20179;-81
2023/01/26 07:28:19;;;;;;;50.07;19.17;;;;;;;;;;5045489;28;20194;-80
2023/01/26 07:30:47;;;;;;;57.20;20.90;;;;;;;;;;5036852;28;20928;-78
2023/01/26 07:33:13;;;;;;;57.05;23.02;;;;;;;;;;5050716;28;20434;-81
2023/01/26 07:35:39;;;;;;;54.30;21.70;;;;;;;;;;5041302;28;20231;-81
2023/01/26 07:38:06;;;;;;;49.75;21.10;;;;;;;;;;5030136;28;20837;-80
2023/01/26 07:40:32;;;;;;;42.88;16.80;;;;;;;;;;5049198;28;20187;-82
2023/01/26 07:42:59;;;;;;;55.60;19.67;;;;;;;;;;5061713;28;20314;-83
2023/01/26 07:45:25;;;;;;;58.22;21.75;;;;;;;;;;5064187;28;20290;-81
2023/01/26 07:47:52;;;;;;;39.20;16.77;;;;;;;;;;5047962;28;20226;-81
2023/01/26 07:50:19;;;;;;;45.90;20.42;;;;;;;;;;5046930;28;20187;-80
2023/01/26 07:52:46;;;;;;;53.67;22.63;;;;;;;;;;5052888;28;20206;-80
2023/01/26 07:55:12;;;;;;;50.78;21.30;;;;;;;;;;5059788;28;20194;-79
2023/01/26 07:57:38;;;;;;;58.50;22.88;;;;;;;;;;5050377;28;20193;-78
2023/01/26 08:00:04;;;;;;;59.30;22.57;;;;;;;;;;5061408;28;20199;-79
2023/01/26 08:02:30;;;;;;;51.03;21.90;;;;;;;;;;5052263;28;20404;-80
2023/01/26 08:04:56;;;;;;;60.37;21.23;;;;;;;;;;5061267;28;20539;-80
2023/01/26 08:07:22;;;;;;;67.50;22.40;;;;;;;;;;5026873;28;20417;-80
2023/01/26 08:09:48;;;;;;;56.38;22.83;;;;;;;;;;5059974;28;20793;-77
2023/01/26 08:12:14;;;;;;;53.40;19.27;;;;;;;;;;5045685;28;20210;-80
2023/01/26 08:14:41;;;;;;;50.87;19.30;;;;;;;;;;5047808;28;20423;-78
2023/01/26 08:17:10;;;;;;;61.67;21.50;;;;;;;;;;5044229;28;20481;-78
2023/01/26 08:19:36;;;;;;;55.92;22.33;;;;;;;;;;5030681;28;20187;-80
2023/01/26 08:22:02;;;;;;;52.23;22.73;;;;;;;;;;5032663;28;20257;-80
2023/01/26 08:24:28;;;;;;;52.27;18.57;;;;;;;;;;5048070;28;20408;-80
2023/01/26 08:26:54;;;;;;;49.37;20.60;;;;;;;;;;5060420;28;20431;-80
2023/01/26 08:29:20;;;;;;;51.85;21.17;;;;;;;;;;5052261;28;20777;-79
2023/01/26 08:31:46;;;;;;;44.63;17.42;;;;;;;;;;5054636;28;20274;-80
2023/01/26 08:34:12;;;;;;;60.78;24.25;;;;;;;;;;5047076;28;20198;-79
2023/01/26 08:36:39;;;;;;;57.43;21.30;;;;;;;;;;5054374;28;20595;-79
2023/01/26 08:39:05;;;;;;;52.45;23.52;;;;;;;;;;5042735;28;20401;-79
2023/01/26 08:41:32;;;;;;;60.35;21.35;;;;;;;;;;5047642;28;20199;-80
2023/01/26 08:43:58;;;;;;;47.42;20.95;;;;;;;;;;5048224;28;20183;-79
2023/01/26 08:46:25;;;;;;;54.78;23.20;;;;;;;;;;5041759;28;20187;-79
2023/01/26 08:48:51;;;;;;;35.10;16.23;;;;;;;;;;5027837;28;20190;-79
2023/01/26 08:51:17;;;;;;;47.20;18.58;;;;;;;;;;5051516;28;20294;-79
2023/01/26 08:53:43;;;;;;;65.40;23.73;;;;;;;;;;5031630;28;20242;-80
2023/01/26 08:56:10;;;;;;;63.10;23.37;;;;;;;;;;5043729;28;20219;-80
2023/01/26 08:58:36;;;;;;;62.88;23.00;;;;;;;;;;5034687;28;21103;-79
2023/01/26 09:01:11;;;;;;;56.92;24.15;;;;;;;;;;5042948;28;20345;-80
2023/01/26 09:03:37;;;;;;;67.28;22.58;;;;;;;;;;5026675;28;20178;-79
2023/01/26 09:06:04;;;;;;;56.95;20.70;;;;;;;;;;5045184;28;20198;-78
2023/01/26 09:08:31;;;;;;;66.00;21.85;;;;;;;;;;5013202;28;20183;-81
2023/01/26 09:10:57;;;;;;;62.47;22.10;;;;;;;;;;5047922;28;20214;-80
2023/01/26 09:13:23;;;;;;;56.05;21.27;;;;;;;;;;5052806;28;20565;-80
2023/01/26 09:15:49;;;;;;;58.75;22.63;;;;;;;;;;5044353;28;20759;-80
2023/01/26 09:18:15;;;;;;;70.35;24.27;;;;;;;;;;5026841;28;20664;-80
2023/01/26 09:20:41;;;;;;;64.85;24.67;;;;;;;;;;5047428;28;20597;-80
2023/01/26 09:23:07;;;;;;;64.15;25.95;;;;;;;;;;5056039;28;20183;-82
2023/01/26 09:25:36;;;;;;;66.75;26.73;;;;;;;;;;5043376;28;20939;-82
2023/01/26 09:28:03;;;;;;;58.38;24.23;;;;;;;;;;5041970;28;20222;-81
2023/01/26 09:30:29;;;;;;;65.10;21.65;;;;;;;;;;5056004;28;20327;-77
2023/01/26 09:33:01;;;;;;;51.27;22.20;;;;;;;;;;5055390;28;20515;-78
2023/01/26 09:35:28;;;;;;;64.07;25.58;;;;;;;;;;5047706;28;20481;-80
2023/01/26 09:37:54;;;;;;;58.38;25.55;;;;;;;;;;5054688;28;20192;-79
2023/01/26 09:40:30;;;;;;;58.72;23.95;;;;;;;;;;5045901;28;20282;-81
2023/01/26 09:43:04;;;;;;;61.40;22.80;;;;;;;;;;5040903;28;20218;-79
2023/01/26 09:45:36;;;;;;;54.67;23.15;;;;;;;;;;5044602;28;20195;-80
2023/01/26 09:48:08;;;;;;;66.85;24.98;;;;;;;;;;5042594;28;20384;-80
2023/01/26 09:51:00;;;;;;;62.70;23.05;;;;;;;;;;5046407;28;20233;-80
2023/01/26 09:53:28;;;;;;;52.15;21.67;;;;;;;;;;5036294;28;20596;-80
2023/01/26 09:55:54;;;;;;;56.35;23.33;;;;;;;;;;5038137;28;20730;-80
2023/01/26 09:58:41;;;;;;;64.85;23.75;;;;;;;;;;5032472;28;20677;-78
2023/01/26 10:01:14;;;;;;;51.75;19.23;;;;;;;;;;5039133;28;20340;-80
2023/01/26 10:03:46;;;;;;;56.38;23.15;;;;;;;;;;5037165;28;20182;-79
2023/01/26 10:06:22;;;;;;;47.53;18.65;;;;;;;;;;5069397;28;20186;-79
2023/01/26 10:08:49;;;;;;;48.38;21.20;;;;;;;;;;5058934;28;20247;-80
2023/01/26 10:11:23;;;;;;;48.50;23.73;;;;;;;;;;5042185;28;20283;-79
2023/01/26 10:13:57;;;;;;;52.67;21.40;;;;;;;;;;5044399;28;20198;-81
2023/01/26 10:16:24;;;;;;;43.03;19.90;;;;;;;;;;5048689;28;20232;-80
2023/01/26 10:19:10;;;;;;;46.55;18.67;;;;;;;;;;5051494;28;20719;-78
2023/01/26 10:21:39;;;;;;;51.90;22.42;;;;;;;;;;5046370;28;20188;-80
2023/01/26 10:24:09;;;;;;;47.30;19.20;;;;;;;;;;5060398;28;20190;-79
2023/01/26 10:26:35;;;;;;;44.38;20.95;;;;;;;;;;5039601;28;20184;-79
2023/01/26 10:29:01;;;;;;;56.87;23.70;;;;;;;;;;5050511;28;20730;-80
2023/01/26 10:31:28;;;;;;;47.77;20.30;;;;;;;;;;5037469;28;20469;-78
2023/01/26 10:33:59;;;;;;;40.78;17.42;;;;;;;;;;5036826;28;20787;-80
2023/01/26 10:36:27;;;;;;;57.90;22.75;;;;;;;;;;5044074;28;20206;-79
2023/01/26 10:38:53;;;;;;;49.13;20.27;;;;;;;;;;5048359;28;20198;-81
2023/01/26 10:41:19;;;;;;;44.53;20.40;;;;;;;;;;5043673;28;20182;-79
2023/01/26 10:43:54;;;;;;;49.17;19.57;;;;;;;;;;5042954;28;20613;-79
2023/01/26 10:46:28;;;;;;;43.75;19.85;;;;;;;;;;5040982;28;20496;-81
2023/01/26 10:48:55;;;;;;;42.00;16.70;;;;;;;;;;5031698;28;20278;-78
2023/01/26 10:51:26;;;;;;;40.67;18.02;;;;;;;;;;5051196;28;20582;-79
2023/01/26 10:54:12;;;;;;;41.75;18.08;;;;;;;;;;5018107;28;20595;-80
2023/01/26 10:56:43;;;;;;;40.17;17.45;;;;;;;;;;5035130;28;20539;-80
2023/01/26 10:59:10;;;;;;;31.30;17.25;;;;;;;;;;5042032;28;20487;-80
2023/01/26 11:02:18;;;;;;;34.78;16.40;;;;;;;;;;5040876;28;20172;-80
2023/01/26 11:05:02;;;;;;;34.13;17.02;;;;;;;;;;4949312;28;20220;-80
2023/01/26 11:07:31;;;;;;;36.38;16.05;;;;;;;;;;4949179;28;20214;-80
2023/01/26 11:10:15;;;;;;;36.03;14.48;;;;;;;;;;5018366;28;20306;-80
2023/01/26 11:12:41;;;;;;;35.28;15.98;;;;;;;;;;5021211;28;20611;-80
2023/01/26 11:15:29;;;;;;;35.85;16.58;;;;;;;;;;5047681;28;20203;-80
2023/01/26 11:17:58;;;;;;;35.58;18.05;;;;;;;;;;5051960;28;20186;-78
2023/01/26 11:20:39;;;;;;;36.22;16.42;;;;;;;;;;5029656;28;20190;-81
2023/01/26 11:23:05;;;;;;;33.37;14.70;;;;;;;;;;5032402;28;20186;-80
2023/01/26 11:25:39;;;;;;;31.53;17.10;;;;;;;;;;5045131;28;20713;-79
2023/01/26 11:28:05;;;;;;;32.83;15.05;;;;;;;;;;5045891;28;20419;-79
2023/01/26 11:30:31;;;;;;;37.40;15.67;;;;;;;;;;5038777;28;20192;-82
2023/01/26 11:33:13;;;;;;;35.00;16.20;;;;;;;;;;5020698;28;20473;-79
2023/01/26 11:35:48;;;;;;;36.23;14.63;;;;;;;;;;5035653;28;20211;-78
2023/01/26 11:38:14;;;;;;;32.97;14.55;;;;;;;;;;5038043;28;20421;-81
2023/01/26 11:40:59;;;;;;;31.07;15.30;;;;;;;;;;5054952;28;20553;-79
2023/01/26 11:43:38;;;;;;;34.33;15.77;;;;;;;;;;5040150;28;20429;-79
2023/01/26 11:46:16;;;;;;;34.88;16.23;;;;;;;;;;5054156;28;20190;-79
2023/01/26 11:49:00;;;;;;;28.40;13.95;;;;;;;;;;5041459;28;20188;-79
2023/01/26 11:51:44;;;;;;;30.20;14.90;;;;;;;;;;5036653;28;20953;-81
2023/01/26 11:54:10;;;;;;;25.55;14.27;;;;;;;;;;5040214;28;20407;-80
2023/01/26 11:56:35;;;;;;;26.57;14.47;;;;;;;;;;5051674;28;20262;-80
2023/01/26 11:59:19;;;;;;;28.67;14.73;;;;;;;;;;5047713;28;20437;-79
2023/01/26 12:01:53;;;;;;;28.60;14.68;;;;;;;;;;5045489;28;20417;-81
2023/01/26 12:04:21;;;;;;;28.25;14.25;;;;;;;;;;5025882;28;20190;-81
2023/01/26 12:06:54;;;;;;;23.27;13.10;;;;;;;;;;5044392;28;20211;-79
2023/01/26 12:09:42;;;;;;;27.27;14.65;;;;;;;;;;5012795;28;20199;-79
2023/01/26 12:12:08;;;;;;;28.42;13.05;;;;;;;;;;5024348;28;20211;-80
2023/01/26 12:14:54;;;;;;;21.60;13.20;;;;;;;;;;5050876;28;20188;-79
2023/01/26 12:17:29;;;;;;;20.85;13.70;;;;;;;;;;5027439;28;20436;-82
2023/01/26 12:20:03;;;;;;;16.05;10.88;;;;;;;;;;5041261;28;20262;-80
2023/01/26 12:22:30;;;;;;;27.02;13.30;;;;;;;;;;5049366;28;20175;-80
2023/01/26 12:25:17;;;;;;;22.70;13.00;;;;;;;;;;5045029;28;20199;-80
2023/01/26 12:27:49;;;;;;;22.85;12.73;;;;;;;;;;5018488;28;20203;-80
2023/01/26 12:30:18;;;;;;;21.60;13.00;;;;;;;;;;5016450;28;20180;-80
2023/01/26 12:32:44;;;;;;;22.92;11.65;;;;;;;;;;5040287;28;20637;-81
2023/01/26 12:35:13;;;;;;;23.23;11.90;;;;;;;;;;5016395;28;20187;-80
2023/01/26 12:37:39;;;;;;;27.42;11.88;;;;;;;;;;5027709;28;20479;-81
2023/01/26 12:40:17;;;;;;;21.33;12.77;;;;;;;;;;5035237;28;20204;-82
2023/01/26 12:43:01;;;;;;;20.35;11.52;;;;;;;;;;5048349;28;20432;-82
2023/01/26 12:45:29;;;;;;;21.42;12.68;;;;;;;;;;5017137;28;20173;-80
2023/01/26 12:47:58;;;;;;;18.77;11.50;;;;;;;;;;5033670;28;20209;-81
2023/01/26 12:50:34;;;;;;;19.92;10.40;;;;;;;;;;5057636;28;20181;-80
2023/01/26 12:53:10;;;;;;;21.08;12.32;;;;;;;;;;5036511;28;20732;-80
2023/01/26 12:55:41;;;;;;;17.37;10.33;;;;;;;;;;5047730;28;20179;-80
2023/01/26 12:58:16;;;;;;;21.20;12.00;;;;;;;;;;5047851;28;20429;-82
2023/01/26 13:00:50;;;;;;;25.43;12.53;;;;;;;;;;5057055;28;20405;-81
2023/01/26 13:03:21;;;;;;;22.27;11.20;;;;;;;;;;5044149;28;20936;-80
2023/01/26 13:05:57;;;;;;;24.67;12.10;;;;;;;;;;5047019;28;20179;-81
2023/01/26 13:08:29;;;;;;;24.15;11.57;;;;;;;;;;5057717;28;20190;-80
2023/01/26 13:10:55;;;;;;;16.33;11.50;;;;;;;;;;5040425;28;20717;-80
2023/01/26 13:13:27;;;;;;;26.42;11.80;;;;;;;;;;5028977;28;20191;-79
2023/01/26 13:16:12;;;;;;;17.38;10.65;;;;;;;;;;5047811;28;20175;-79
2023/01/26 13:19:07;;;;;;;24.67;12.88;;;;;;;;;;5051808;28;20187;-80
2023/01/26 13:21:43;;;;;;;20.17;11.40;;;;;;;;;;5003145;28;20258;-80
2023/01/26 13:24:29;;;;;;;21.02;13.07;;;;;;;;;;5062906;28;20240;-79
2023/01/26 13:26:56;;;;;;;22.67;12.50;;;;;;;;;;4989874;28;20244;-81
2023/01/26 13:29:26;;;;;;;24.63;12.80;;;;;;;;;;5045026;28;20476;-81
2023/01/26 13:32:21;;;;;;;23.08;13.00;;;;;;;;;;5038873;28;20364;-82
2023/01/26 13:34:58;;;;;;;28.23;14.55;;;;;;;;;;5030176;28;20627;-79
2023/01/26 13:37:37;;;;;;;22.48;15.30;;;;;;;;;;5041836;28;20544;-79
2023/01/26 13:40:17;;;;;;;25.98;12.80;;;;;;;;;;5056507;28;20206;-79
2023/01/26 13:42:58;;;;;;;23.83;14.05;;;;;;;;;;5020504;28;20196;-80
2023/01/26 13:45:33;;;;;;;29.40;16.17;;;;;;;;;;5047585;28;20191;-80
2023/01/26 13:48:00;;;;;;;30.35;15.98;;;;;;;;;;5032624;28;20183;-83
2023/01/26 13:50:29;;;;;;;32.57;15.27;;;;;;;;;;5033332;28;20264;-77
2023/01/26 13:52:55;;;;;;;24.33;14.88;;;;;;;;;;5037698;28;20456;-79
2023/01/26 13:55:23;;;;;;;24.87;14.10;;;;;;;;;;5047710;28;20188;-78
2023/01/26 13:57:49;;;;;;;24.02;13.88;;;;;;;;;;5048340;28;21016;-77
2023/01/26 14:00:16;;;;;;;27.80;12.77;;;;;;;;;;5026947;28;20185;-77
2023/01/26 14:02:48;;;;;;;24.40;13.77;;;;;;;;;;5030670;28;20310;-79
2023/01/26 14:05:22;;;;;;;33.35;14.20;;;;;;;;;;5041636;28;20426;-78
2023/01/26 14:07:49;;;;;;;26.53;15.70;;;;;;;;;;5043697;28;20204;-77
2023/01/26 14:10:18;;;;;;;29.60;15.57;;;;;;;;;;5026960;28;20431;-78
2023/01/26 14:12:50;;;;;;;33.60;15.40;;;;;;;;;;5033305;28;20477;-77
2023/01/26 14:15:26;;;;;;;34.57;13.80;;;;;;;;;;5013251;28;20809;-79
2023/01/26 14:17:57;;;;;;;28.63;13.90;;;;;;;;;;5046975;28;20476;-79
2023/01/26 14:20:41;;;;;;;38.10;14.47;;;;;;;;;;5026208;28;20464;-78
2023/01/26 14:23:12;;;;;;;38.05;14.40;;;;;;;;;;5019413;28;20437;-77
2023/01/26 14:25:39;;;;;;;26.63;12.88;;;;;;;;;;5032023;28;20206;-79
2023/01/26 14:28:06;;;;;;;31.40;13.93;;;;;;;;;;5026034;28;20557;-79
2023/01/26 14:30:33;;;;;;;24.10;14.68;;;;;;;;;;5042990;28;20606;-76
2023/01/26 14:33:22;;;;;;;26.80;13.75;;;;;;;;;;5046790;28;20290;-80
2023/01/26 14:35:55;;;;;;;28.85;14.13;;;;;;;;;;5043395;28;20210;-79
2023/01/26 14:38:21;;;;;;;37.63;16.57;;;;;;;;;;5022384;28;20275;-78
2023/01/26 14:40:51;;;;;;;36.38;14.52;;;;;;;;;;5034394;28;20848;-78
2023/01/26 14:43:17;;;;;;;43.47;14.68;;;;;;;;;;5021689;28;20548;-78
2023/01/26 14:45:46;;;;;;;33.42;15.52;;;;;;;;;;5032784;28;20223;-78
2023/01/26 14:48:15;;;;;;;31.17;13.27;;;;;;;;;;5056617;28;20711;-78
2023/01/26 14:50:43;;;;;;;29.60;15.60;;;;;;;;;;5050837;28;20205;-81
2023/01/26 14:53:16;;;;;;;41.22;15.35;;;;;;;;;;5050776;28;20292;-80
2023/01/26 14:55:43;;;;;;;48.88;17.15;;;;;;;;;;5050308;28;20195;-78
2023/01/26 14:58:15;;;;;;;31.92;16.40;;;;;;;;;;5059857;28;20214;-79
2023/01/26 15:00:41;;;;;;;32.25;14.38;;;;;;;;;;5030582;28;20325;-79
2023/01/26 15:03:12;;;;;;;48.75;16.08;;;;;;;;;;5055044;28;20477;-80
2023/01/26 15:05:42;;;;;;;53.67;16.52;;;;;;;;;;5036157;28;20215;-80
2023/01/26 15:08:24;;;;;;;49.35;16.88;;;;;;;;;;5056360;28;20187;-79
2023/01/26 15:10:54;;;;;;;35.60;16.98;;;;;;;;;;5013525;28;20225;-80
2023/01/26 15:13:24;;;;;;;29.73;13.95;;;;;;;;;;5050088;28;20182;-81
2023/01/26 15:16:06;;;;;;;42.67;15.00;;;;;;;;;;5057212;28;20646;-80
2023/01/26 15:18:33;;;;;;;50.70;18.48;;;;;;;;;;5017397;28;20465;-80